Time;durP1;ratioP1;P1;durP2;ratioP2;P2;SDS_P1;SDS_P2;PMS_P1;PMS_P2;Temp;Humidity;BMP_temperature;BMP_pressure;BME280_temperature;BME280_humidity;BME280_pressure;Samples;Min_cycle;Max_cycle;Signal;HPM_P1;HPM_P2
2021/08/10 00:01:56;;;;;;;2.33;1.20;;;;;;;;;;5053380;28;20029;-76
2021/08/10 00:04:22;;;;;;;1.40;1.27;;;;;;;;;;5064182;28;20448;-76
2021/08/10 00:06:47;;;;;;;1.98;1.38;;;;;;;;;;5057227;28;20048;-76
2021/08/10 00:09:12;;;;;;;3.17;1.43;;;;;;;;;;5053268;28;20104;-76
2021/08/10 00:11:37;;;;;;;2.97;1.27;;;;;;;;;;5041489;28;20367;-76
2021/08/10 00:14:03;;;;;;;2.43;1.33;;;;;;;;;;5033546;28;20108;-76
2021/08/10 00:16:30;;;;;;;1.75;1.23;;;;;;;;;;5016119;28;20343;-76
2021/08/10 00:18:58;;;;;;;2.22;1.30;;;;;;;;;;5033684;28;20464;-76
2021/08/10 00:21:23;;;;;;;1.05;0.93;;;;;;;;;;5033039;28;20033;-76
2021/08/10 00:23:51;;;;;;;1.80;1.30;;;;;;;;;;5033337;28;20029;-76
2021/08/10 00:26:16;;;;;;;1.70;1.15;;;;;;;;;;5043155;28;20306;-76
2021/08/10 00:28:41;;;;;;;1.77;1.10;;;;;;;;;;5052942;28;20053;-76
2021/08/10 00:31:09;;;;;;;2.65;1.30;;;;;;;;;;5052681;28;20325;-76
2021/08/10 00:33:34;;;;;;;1.95;1.20;;;;;;;;;;5036185;28;20037;-76
2021/08/10 00:35:59;;;;;;;1.97;1.10;;;;;;;;;;5053088;28;20166;-76
2021/08/10 00:38:25;;;;;;;2.17;1.20;;;;;;;;;;5055441;28;20543;-76
2021/08/10 00:40:51;;;;;;;1.98;1.15;;;;;;;;;;5072627;28;20021;-76
2021/08/10 00:43:30;;;;;;;1.95;1.30;;;;;;;;;;5073063;28;20020;-76
2021/08/10 00:45:55;;;;;;;2.63;1.20;;;;;;;;;;5073227;28;20347;-77
2021/08/10 00:48:22;;;;;;;2.00;1.25;;;;;;;;;;5072220;28;20021;-77
2021/08/10 00:50:48;;;;;;;1.63;1.20;;;;;;;;;;5072992;28;20035;-77
2021/08/10 00:53:13;;;;;;;1.33;1.17;;;;;;;;;;5019637;28;20022;-77
2021/08/10 00:55:41;;;;;;;2.78;1.58;;;;;;;;;;5032958;28;20332;-76
2021/08/10 00:58:07;;;;;;;3.03;1.45;;;;;;;;;;5033085;28;20026;-76
2021/08/10 01:00:32;;;;;;;1.88;1.17;;;;;;;;;;5017232;28;20047;-76
2021/08/10 01:02:57;;;;;;;2.75;1.20;;;;;;;;;;5045486;28;20127;-76
2021/08/10 01:05:23;;;;;;;1.80;1.27;;;;;;;;;;5055329;28;20040;-76
2021/08/10 01:07:53;;;;;;;2.67;1.27;;;;;;;;;;5056632;28;20290;-76
2021/08/10 01:10:31;;;;;;;3.08;1.38;;;;;;;;;;5056269;28;20028;-76
2021/08/10 01:13:26;;;;;;;4.88;1.20;;;;;;;;;;5053548;28;20032;-76
2021/08/10 01:16:00;;;;;;;2.03;1.10;;;;;;;;;;5033943;28;20432;-76
2021/08/10 01:18:28;;;;;;;1.27;1.10;;;;;;;;;;5055735;28;20017;-76
2021/08/10 01:21:07;;;;;;;4.22;1.23;;;;;;;;;;5056191;28;20009;-76
2021/08/10 01:23:37;;;;;;;1.77;0.80;;;;;;;;;;5040064;28;20024;-77
2021/08/10 01:26:15;;;;;;;1.45;1.10;;;;;;;;;;5038028;28;20017;-76
2021/08/10 01:28:46;;;;;;;1.45;1.15;;;;;;;;;;5056162;28;20028;-77
2021/08/10 01:31:15;;;;;;;2.50;1.05;;;;;;;;;;5055610;28;20091;-76
2021/08/10 01:33:43;;;;;;;1.73;1.23;;;;;;;;;;5037807;28;20105;-76
2021/08/10 01:36:09;;;;;;;2.10;0.95;;;;;;;;;;5036993;28;20345;-76
2021/08/10 01:38:34;;;;;;;1.77;1.35;;;;;;;;;;5036076;28;20096;-76
2021/08/10 01:41:00;;;;;;;3.75;1.60;;;;;;;;;;5045057;28;20094;-76
2021/08/10 01:43:31;;;;;;;2.17;1.10;;;;;;;;;;5056039;28;20398;-76
2021/08/10 01:45:59;;;;;;;4.13;1.35;;;;;;;;;;5055996;28;20024;-76
2021/08/10 01:48:25;;;;;;;1.20;1.10;;;;;;;;;;5056041;28;20437;-76
2021/08/10 01:50:50;;;;;;;4.18;1.27;;;;;;;;;;5054840;28;20108;-77
2021/08/10 01:53:18;;;;;;;2.22;1.30;;;;;;;;;;5055987;28;20371;-76
2021/08/10 01:55:44;;;;;;;3.08;1.33;;;;;;;;;;5055741;28;20045;-76
2021/08/10 01:58:10;;;;;;;1.67;1.00;;;;;;;;;;5051584;28;20032;-76
2021/08/10 02:00:36;;;;;;;2.08;1.10;;;;;;;;;;5035914;28;20097;-76
2021/08/10 02:03:06;;;;;;;1.98;1.20;;;;;;;;;;5061458;28;20035;-76
2021/08/10 02:05:31;;;;;;;4.35;1.20;;;;;;;;;;5075495;28;20051;-76
2021/08/10 02:07:57;;;;;;;1.70;1.10;;;;;;;;;;5075654;28;20020;-76
2021/08/10 02:10:22;;;;;;;2.63;1.13;;;;;;;;;;5057722;28;20033;-76
2021/08/10 02:12:48;;;;;;;3.00;1.20;;;;;;;;;;5027897;28;20086;-77
2021/08/10 02:15:13;;;;;;;1.58;0.90;;;;;;;;;;5054833;28;20260;-77
2021/08/10 02:17:39;;;;;;;1.48;1.10;;;;;;;;;;5054319;28;20096;-77
2021/08/10 02:20:04;;;;;;;1.73;1.00;;;;;;;;;;5055303;28;20104;-76
2021/08/10 02:22:30;;;;;;;3.38;1.00;;;;;;;;;;5055637;28;20338;-76
2021/08/10 02:25:03;;;;;;;2.40;1.25;;;;;;;;;;5054935;28;20017;-76
2021/08/10 02:27:33;;;;;;;1.35;1.23;;;;;;;;;;5054934;28;20025;-76
2021/08/10 02:30:01;;;;;;;1.63;1.20;;;;;;;;;;5055169;28;20108;-76
2021/08/10 02:32:27;;;;;;;1.60;1.08;;;;;;;;;;5055309;28;20021;-76
2021/08/10 02:34:52;;;;;;;2.25;1.17;;;;;;;;;;5034724;28;20031;-76
2021/08/10 02:37:19;;;;;;;2.42;1.30;;;;;;;;;;5035437;28;20318;-77
2021/08/10 02:39:47;;;;;;;1.60;1.10;;;;;;;;;;5035442;28;20091;-76
2021/08/10 02:42:15;;;;;;;2.25;1.17;;;;;;;;;;5017735;28;20084;-76
2021/08/10 02:44:41;;;;;;;3.10;1.17;;;;;;;;;;5017304;28;20036;-76
2021/08/10 02:47:06;;;;;;;2.88;1.23;;;;;;;;;;5034532;28;20021;-76
2021/08/10 02:49:32;;;;;;;3.28;1.15;;;;;;;;;;5034736;28;20459;-76
2021/08/10 02:51:57;;;;;;;1.65;1.25;;;;;;;;;;5017441;28;20018;-76
2021/08/10 02:54:22;;;;;;;3.30;1.27;;;;;;;;;;5050642;28;20023;-76
2021/08/10 02:56:53;;;;;;;1.52;1.10;;;;;;;;;;5054538;28;20288;-76
2021/08/10 02:59:23;;;;;;;2.40;1.38;;;;;;;;;;5030431;28;20033;-76
2021/08/10 03:02:09;;;;;;;2.22;1.17;;;;;;;;;;5042565;28;20029;-76
2021/08/10 03:04:40;;;;;;;2.92;1.50;;;;;;;;;;5053256;28;20080;-76
2021/08/10 03:07:06;;;;;;;1.90;1.23;;;;;;;;;;5071549;28;20044;-76
2021/08/10 03:09:32;;;;;;;2.80;1.17;;;;;;;;;;5074378;28;20100;-76
2021/08/10 03:12:00;;;;;;;3.17;1.20;;;;;;;;;;5046820;28;20485;-76
2021/08/10 03:14:28;;;;;;;2.03;1.30;;;;;;;;;;5034190;28;20021;-76
2021/08/10 03:16:57;;;;;;;1.85;1.10;;;;;;;;;;5045050;28;20027;-76
2021/08/10 03:19:22;;;;;;;1.83;1.02;;;;;;;;;;5053318;28;20107;-76
2021/08/10 03:21:51;;;;;;;1.58;1.10;;;;;;;;;;5039984;28;20100;-76
2021/08/10 03:24:18;;;;;;;2.47;1.20;;;;;;;;;;5054244;28;20356;-76
2021/08/10 03:26:43;;;;;;;1.23;0.95;;;;;;;;;;5068572;28;20396;-76
2021/08/10 03:29:09;;;;;;;4.57;1.50;;;;;;;;;;5050860;28;20119;-76
2021/08/10 03:31:37;;;;;;;2.67;1.08;;;;;;;;;;5053183;28;20071;-76
2021/08/10 03:34:02;;;;;;;1.10;0.82;;;;;;;;;;5053435;28;20519;-77
2021/08/10 03:36:27;;;;;;;1.63;1.13;;;;;;;;;;5022556;28;20108;-75
2021/08/10 03:38:56;;;;;;;1.85;1.10;;;;;;;;;;5045347;28;20509;-75
2021/08/10 03:41:22;;;;;;;2.33;1.00;;;;;;;;;;5041810;28;20044;-76
2021/08/10 03:43:47;;;;;;;1.50;1.08;;;;;;;;;;5026556;28;20021;-83
2021/08/10 03:46:14;;;;;;;1.75;1.17;;;;;;;;;;5026397;28;20028;-79
2021/08/10 03:48:41;;;;;;;3.45;1.60;;;;;;;;;;5041548;28;20033;-76
2021/08/10 03:51:06;;;;;;;4.22;1.60;;;;;;;;;;5038663;28;20033;-76
2021/08/10 03:53:34;;;;;;;4.10;1.40;;;;;;;;;;5052620;28;20447;-76
2021/08/10 03:56:00;;;;;;;4.40;1.73;;;;;;;;;;5053284;28;20045;-76
2021/08/10 03:58:27;;;;;;;1.92;1.20;;;;;;;;;;5055466;28;20354;-76
2021/08/10 04:00:53;;;;;;;2.53;1.48;;;;;;;;;;5073454;28;20040;-75
2021/08/10 04:03:19;;;;;;;1.98;1.10;;;;;;;;;;5055682;28;20024;-76
2021/08/10 04:05:49;;;;;;;2.13;1.27;;;;;;;;;;5073609;28;20432;-76
2021/08/10 04:08:17;;;;;;;2.78;1.40;;;;;;;;;;5036949;28;20021;-76
2021/08/10 04:10:48;;;;;;;2.55;1.50;;;;;;;;;;5040358;28;20020;-78
2021/08/10 04:13:13;;;;;;;2.20;1.00;;;;;;;;;;5055554;28;20023;-77
2021/08/10 04:15:42;;;;;;;1.90;1.40;;;;;;;;;;5073465;28;20092;-75
2021/08/10 04:18:11;;;;;;;1.63;1.23;;;;;;;;;;5073498;28;20028;-74
2021/08/10 04:20:39;;;;;;;3.90;1.40;;;;;;;;;;5039719;28;20036;-74
2021/08/10 04:23:05;;;;;;;3.00;1.33;;;;;;;;;;5033462;28;20125;-73
2021/08/10 04:25:30;;;;;;;3.85;1.58;;;;;;;;;;5042411;28;20064;-74
2021/08/10 04:27:56;;;;;;;3.50;1.60;;;;;;;;;;5053537;28;20040;-74
2021/08/10 04:30:21;;;;;;;2.83;1.70;;;;;;;;;;5035543;28;20028;-74
2021/08/10 04:32:48;;;;;;;2.08;1.50;;;;;;;;;;5052322;28;20264;-81
2021/08/10 04:35:16;;;;;;;2.10;1.50;;;;;;;;;;5052500;28;20032;-74
2021/08/10 04:37:41;;;;;;;2.75;1.40;;;;;;;;;;5052812;28;20021;-73
2021/08/10 04:40:07;;;;;;;1.90;1.30;;;;;;;;;;5056558;28;20021;-73
2021/08/10 04:42:33;;;;;;;3.33;1.40;;;;;;;;;;5057018;28;20378;-73
2021/08/10 04:45:01;;;;;;;2.05;1.35;;;;;;;;;;5057035;28;20032;-74
2021/08/10 04:47:26;;;;;;;2.13;1.33;;;;;;;;;;5049171;28;20104;-75
2021/08/10 04:49:51;;;;;;;3.63;1.65;;;;;;;;;;5056634;28;20495;-74
2021/08/10 04:52:16;;;;;;;2.20;1.47;;;;;;;;;;5048535;28;20018;-74
2021/08/10 04:54:44;;;;;;;2.83;1.70;;;;;;;;;;5036637;28;20264;-73
2021/08/10 04:57:09;;;;;;;2.35;1.55;;;;;;;;;;5041719;28;20276;-74
2021/08/10 04:59:34;;;;;;;2.90;1.40;;;;;;;;;;5056145;28;20022;-74
2021/08/10 05:02:02;;;;;;;2.53;1.80;;;;;;;;;;5035872;28;20275;-74
2021/08/10 05:04:27;;;;;;;2.58;1.60;;;;;;;;;;5036809;28;20264;-73
2021/08/10 05:06:53;;;;;;;2.30;1.40;;;;;;;;;;5041382;28;20021;-73
2021/08/10 05:09:19;;;;;;;3.13;1.52;;;;;;;;;;5076338;28;20024;-74
2021/08/10 05:11:45;;;;;;;1.88;1.40;;;;;;;;;;5056119;28;20014;-73
2021/08/10 05:14:10;;;;;;;2.15;1.42;;;;;;;;;;5036520;28;20021;-73
2021/08/10 05:16:35;;;;;;;4.30;1.40;;;;;;;;;;5036001;28;20028;-74
2021/08/10 05:19:00;;;;;;;2.22;1.42;;;;;;;;;;5036472;28;20021;-74
2021/08/10 05:21:25;;;;;;;3.50;1.70;;;;;;;;;;5058685;28;20025;-74
2021/08/10 05:23:51;;;;;;;2.20;1.50;;;;;;;;;;5054385;28;20025;-74
2021/08/10 05:26:17;;;;;;;2.25;1.40;;;;;;;;;;5054731;28;20275;-74
2021/08/10 05:28:42;;;;;;;2.78;1.65;;;;;;;;;;5055911;28;20021;-74
2021/08/10 05:31:09;;;;;;;4.05;1.65;;;;;;;;;;5054083;28;20148;-73
2021/08/10 05:33:35;;;;;;;2.85;1.50;;;;;;;;;;5055635;28;20021;-74
2021/08/10 05:36:00;;;;;;;4.28;1.50;;;;;;;;;;5063555;28;20035;-74
2021/08/10 05:38:25;;;;;;;2.97;1.50;;;;;;;;;;5053825;28;20068;-74
2021/08/10 05:40:55;;;;;;;3.30;1.60;;;;;;;;;;5054700;28;20593;-73
2021/08/10 05:43:22;;;;;;;2.15;1.40;;;;;;;;;;5055915;28;20256;-73
2021/08/10 05:45:48;;;;;;;2.72;1.50;;;;;;;;;;5054186;28;20440;-74
2021/08/10 05:48:13;;;;;;;4.68;1.75;;;;;;;;;;5027160;28;20039;-73
2021/08/10 05:50:38;;;;;;;3.05;1.67;;;;;;;;;;5054760;28;20013;-73
2021/08/10 05:53:03;;;;;;;3.80;1.45;;;;;;;;;;5036164;28;20021;-73
2021/08/10 05:55:28;;;;;;;3.58;1.50;;;;;;;;;;5053138;28;20052;-72
2021/08/10 05:57:54;;;;;;;3.60;1.67;;;;;;;;;;5043602;28;20036;-73
2021/08/10 06:00:22;;;;;;;3.53;1.30;;;;;;;;;;5034313;28;20267;-73
2021/08/10 06:02:47;;;;;;;2.15;1.40;;;;;;;;;;5017896;28;20029;-73
2021/08/10 06:05:12;;;;;;;4.07;1.40;;;;;;;;;;5042473;28;20040;-74
2021/08/10 06:07:37;;;;;;;2.40;1.50;;;;;;;;;;5054993;28;20048;-73
2021/08/10 06:10:03;;;;;;;3.45;1.50;;;;;;;;;;5053015;28;20386;-72
2021/08/10 06:12:28;;;;;;;2.17;1.50;;;;;;;;;;5037796;28;20024;-72
2021/08/10 06:14:56;;;;;;;1.67;1.25;;;;;;;;;;5054733;28;20325;-72
2021/08/10 06:17:24;;;;;;;1.65;1.38;;;;;;;;;;5039783;28;20018;-72
2021/08/10 06:19:49;;;;;;;2.55;1.58;;;;;;;;;;5039501;28;20471;-75
2021/08/10 06:22:14;;;;;;;3.85;1.50;;;;;;;;;;5038542;28;20053;-74
2021/08/10 06:24:40;;;;;;;2.07;1.40;;;;;;;;;;5046073;28;20029;-74
2021/08/10 06:27:07;;;;;;;2.53;1.50;;;;;;;;;;5047062;28;20264;-74
2021/08/10 06:29:33;;;;;;;1.98;1.52;;;;;;;;;;5017947;28;20341;-75
2021/08/10 06:31:58;;;;;;;3.63;1.75;;;;;;;;;;5040091;28;20033;-76
2021/08/10 06:34:23;;;;;;;1.40;1.13;;;;;;;;;;5042710;28;20040;-76
2021/08/10 06:36:48;;;;;;;1.83;1.40;;;;;;;;;;5054973;28;20013;-76
2021/08/10 06:39:14;;;;;;;3.55;1.50;;;;;;;;;;5058723;28;20052;-75
2021/08/10 06:41:39;;;;;;;2.37;1.40;;;;;;;;;;5050238;28;20028;-76
2021/08/10 06:44:04;;;;;;;1.73;1.35;;;;;;;;;;5061606;28;20290;-76
2021/08/10 06:46:30;;;;;;;2.30;1.40;;;;;;;;;;5044879;28;20040;-75
2021/08/10 06:48:56;;;;;;;2.58;1.58;;;;;;;;;;5043874;28;20013;-77
2021/08/10 06:51:21;;;;;;;2.67;1.60;;;;;;;;;;5050853;28;20032;-76
2021/08/10 06:53:46;;;;;;;4.10;1.60;;;;;;;;;;5044727;28;20024;-77
2021/08/10 06:56:14;;;;;;;3.43;1.50;;;;;;;;;;5044593;28;20116;-76
2021/08/10 06:58:42;;;;;;;3.47;1.25;;;;;;;;;;5046932;28;20298;-76
2021/08/10 07:01:07;;;;;;;2.10;1.40;;;;;;;;;;5044542;28;20089;-76
2021/08/10 07:03:32;;;;;;;2.58;1.70;;;;;;;;;;5049669;28;20092;-76
2021/08/10 07:05:58;;;;;;;3.38;1.70;;;;;;;;;;5052425;28;20410;-76
2021/08/10 07:08:23;;;;;;;1.55;1.35;;;;;;;;;;5048521;28;20016;-75
2021/08/10 07:10:48;;;;;;;2.80;1.38;;;;;;;;;;5054865;28;20040;-76
2021/08/10 07:13:14;;;;;;;2.23;1.60;;;;;;;;;;5061438;28;20017;-76
2021/08/10 07:15:41;;;;;;;3.00;1.50;;;;;;;;;;5052574;28;20333;-75
2021/08/10 07:18:06;;;;;;;2.20;1.23;;;;;;;;;;5043954;28;20293;-75
2021/08/10 07:20:32;;;;;;;2.65;1.50;;;;;;;;;;5051279;28;20033;-76
2021/08/10 07:22:57;;;;;;;2.13;1.30;;;;;;;;;;5050697;28;20093;-74
2021/08/10 07:25:24;;;;;;;2.63;1.35;;;;;;;;;;5066098;28;20024;-73
2021/08/10 07:27:50;;;;;;;3.38;1.50;;;;;;;;;;5058583;28;21248;-73
2021/08/10 07:30:15;;;;;;;2.15;1.60;;;;;;;;;;5053451;28;20082;-73
2021/08/10 07:32:43;;;;;;;3.78;1.63;;;;;;;;;;5053962;28;20017;-73
2021/08/10 07:35:08;;;;;;;1.67;1.50;;;;;;;;;;5051351;28;20025;-74
2021/08/10 07:37:41;;;;;;;2.08;1.50;;;;;;;;;;5044013;28;20025;-76
2021/08/10 07:40:07;;;;;;;2.40;1.75;;;;;;;;;;5053395;28;20040;-74
2021/08/10 07:42:32;;;;;;;3.45;1.50;;;;;;;;;;5043153;28;20025;-74
2021/08/10 07:44:57;;;;;;;1.60;1.30;;;;;;;;;;5039013;28;20028;-74
2021/08/10 07:47:22;;;;;;;2.50;1.53;;;;;;;;;;5044491;28;20571;-74
2021/08/10 07:49:50;;;;;;;2.97;1.60;;;;;;;;;;5044012;28;20275;-74
2021/08/10 07:52:15;;;;;;;2.80;1.50;;;;;;;;;;5045248;28;20684;-73
2021/08/10 07:54:42;;;;;;;4.07;1.70;;;;;;;;;;5042647;28;20101;-73
2021/08/10 07:57:08;;;;;;;3.50;1.58;;;;;;;;;;5036789;28;20028;-74
2021/08/10 07:59:37;;;;;;;3.63;1.70;;;;;;;;;;5043563;28;20033;-74
2021/08/10 08:02:02;;;;;;;2.00;1.52;;;;;;;;;;5051486;28;20021;-74
2021/08/10 08:04:27;;;;;;;2.33;1.42;;;;;;;;;;5047386;28;20413;-74
2021/08/10 08:06:52;;;;;;;2.53;1.42;;;;;;;;;;5050639;28;20021;-73
2021/08/10 08:09:17;;;;;;;3.37;1.50;;;;;;;;;;5032960;28;20045;-73
2021/08/10 08:11:43;;;;;;;4.03;1.60;;;;;;;;;;5047524;28;20702;-74
2021/08/10 08:14:08;;;;;;;2.45;1.40;;;;;;;;;;5052261;28;20036;-74
2021/08/10 08:16:38;;;;;;;3.33;1.33;;;;;;;;;;5032372;28;20051;-73
2021/08/10 08:19:04;;;;;;;2.45;1.52;;;;;;;;;;5053219;28;20029;-73
2021/08/10 08:21:29;;;;;;;3.50;1.50;;;;;;;;;;5053340;28;20028;-73
2021/08/10 08:23:54;;;;;;;2.53;1.60;;;;;;;;;;5052039;28;20309;-73
2021/08/10 08:26:21;;;;;;;2.67;1.50;;;;;;;;;;5052639;28;20279;-74
2021/08/10 08:28:46;;;;;;;2.25;1.38;;;;;;;;;;5052924;28;20606;-73
2021/08/10 08:31:12;;;;;;;3.42;1.80;;;;;;;;;;5052885;28;20033;-73
2021/08/10 08:33:37;;;;;;;4.30;1.40;;;;;;;;;;5039755;28;20041;-74
2021/08/10 08:36:05;;;;;;;2.63;1.53;;;;;;;;;;5049024;28;20267;-73
2021/08/10 08:38:30;;;;;;;2.70;1.65;;;;;;;;;;5053155;28;20264;-73
2021/08/10 08:40:55;;;;;;;1.77;1.30;;;;;;;;;;5053154;28;20036;-73
2021/08/10 08:43:22;;;;;;;2.70;1.40;;;;;;;;;;5050963;28;20263;-73
2021/08/10 08:45:50;;;;;;;1.92;1.40;;;;;;;;;;5053185;28;20451;-73
2021/08/10 08:48:15;;;;;;;2.40;1.40;;;;;;;;;;5053155;28;20021;-73
2021/08/10 08:50:41;;;;;;;3.55;1.77;;;;;;;;;;5046121;28;20405;-73
2021/08/10 08:53:10;;;;;;;2.63;1.35;;;;;;;;;;5033023;28;20021;-74
2021/08/10 08:55:35;;;;;;;4.50;1.23;;;;;;;;;;5044551;28;20053;-73
2021/08/10 08:58:01;;;;;;;2.35;1.25;;;;;;;;;;5039842;28;20466;-74
2021/08/10 09:00:28;;;;;;;2.58;1.42;;;;;;;;;;5046693;28;20028;-73
2021/08/10 09:02:54;;;;;;;1.80;1.42;;;;;;;;;;5045391;28;20052;-73
2021/08/10 09:05:19;;;;;;;2.20;1.50;;;;;;;;;;5052208;28;20063;-74
2021/08/10 09:07:44;;;;;;;2.60;1.60;;;;;;;;;;5052072;28;20039;-74
2021/08/10 09:10:18;;;;;;;2.53;1.48;;;;;;;;;;5052784;28;20332;-73
2021/08/10 09:12:44;;;;;;;2.42;1.65;;;;;;;;;;5037115;28;20033;-73
2021/08/10 09:15:10;;;;;;;2.58;1.30;;;;;;;;;;5052950;28;20439;-73
2021/08/10 09:17:44;;;;;;;2.67;1.67;;;;;;;;;;5052844;28;20021;-74
2021/08/10 09:20:09;;;;;;;3.65;1.60;;;;;;;;;;5052825;28;20025;-73
2021/08/10 09:22:35;;;;;;;1.85;1.40;;;;;;;;;;5047269;28;20070;-74
2021/08/10 09:25:02;;;;;;;1.83;1.50;;;;;;;;;;5053163;28;20056;-74
2021/08/10 09:27:32;;;;;;;3.28;1.58;;;;;;;;;;5046064;28;20028;-73
2021/08/10 09:29:58;;;;;;;2.65;1.55;;;;;;;;;;5051175;28;20118;-73
2021/08/10 09:32:23;;;;;;;2.38;1.50;;;;;;;;;;5047484;28;20041;-73
2021/08/10 09:35:18;;;;;;;1.80;1.50;;;;;;;;;;5054307;28;20021;-74
2021/08/10 09:38:04;;;;;;;2.00;1.70;;;;;;;;;;5033279;28;20033;-73
2021/08/10 09:40:38;;;;;;;2.50;1.63;;;;;;;;;;5055549;28;20032;-74
2021/08/10 09:43:19;;;;;;;2.25;1.55;;;;;;;;;;5055893;28;20029;-74
2021/08/10 09:45:44;;;;;;;2.85;1.63;;;;;;;;;;5055800;28;20017;-74
2021/08/10 09:48:16;;;;;;;1.87;1.63;;;;;;;;;;5054467;28;20528;-74
2021/08/10 09:50:42;;;;;;;2.33;1.48;;;;;;;;;;5055239;28;20279;-74
2021/08/10 09:53:16;;;;;;;3.17;1.80;;;;;;;;;;5054770;28;20021;-74
2021/08/10 09:55:57;;;;;;;2.70;1.45;;;;;;;;;;5065268;28;20113;-74
2021/08/10 09:58:23;;;;;;;2.65;1.40;;;;;;;;;;5054952;28;20027;-73
2021/08/10 10:00:51;;;;;;;2.45;1.50;;;;;;;;;;5055853;28;20108;-74
2021/08/10 10:03:20;;;;;;;3.10;1.48;;;;;;;;;;5036045;28;20408;-73
2021/08/10 10:05:46;;;;;;;3.28;1.45;;;;;;;;;;5062616;28;20029;-74
2021/08/10 10:08:14;;;;;;;2.65;1.48;;;;;;;;;;5071176;28;20458;-73
2021/08/10 10:10:41;;;;;;;3.22;1.33;;;;;;;;;;5071482;28;20032;-74
2021/08/10 10:13:06;;;;;;;3.67;1.60;;;;;;;;;;5037486;28;20017;-74
2021/08/10 10:15:32;;;;;;;3.63;1.33;;;;;;;;;;5051526;28;20352;-74
2021/08/10 10:17:57;;;;;;;2.05;1.40;;;;;;;;;;5059327;28;20029;-75
2021/08/10 10:20:24;;;;;;;2.10;1.45;;;;;;;;;;5071650;28;20039;-76
2021/08/10 10:22:50;;;;;;;1.98;1.65;;;;;;;;;;5041098;28;20025;-76
2021/08/10 10:25:17;;;;;;;1.40;1.30;;;;;;;;;;5053186;28;20025;-76
2021/08/10 10:27:43;;;;;;;1.75;1.15;;;;;;;;;;5060620;28;20024;-76
2021/08/10 10:30:11;;;;;;;2.38;1.55;;;;;;;;;;5029902;28;20041;-76
2021/08/10 10:32:36;;;;;;;2.05;1.45;;;;;;;;;;5034954;28;20018;-77
2021/08/10 10:35:02;;;;;;;2.42;1.30;;;;;;;;;;5034618;28;20032;-76
2021/08/10 10:37:28;;;;;;;2.30;1.70;;;;;;;;;;5034386;28;20124;-76
2021/08/10 10:39:58;;;;;;;2.72;1.50;;;;;;;;;;5035134;28;20032;-76
2021/08/10 10:42:24;;;;;;;1.65;1.40;;;;;;;;;;5042581;28;20135;-76
2021/08/10 10:44:52;;;;;;;2.65;1.50;;;;;;;;;;5075039;28;20054;-76
2021/08/10 10:47:20;;;;;;;1.88;1.33;;;;;;;;;;5075055;28;20047;-76
2021/08/10 10:50:06;;;;;;;1.40;1.30;;;;;;;;;;5056773;28;20025;-76
2021/08/10 10:52:36;;;;;;;2.17;1.52;;;;;;;;;;5054288;28;20036;-81
2021/08/10 10:55:03;;;;;;;1.70;1.40;;;;;;;;;;5054832;28;20463;-76
2021/08/10 10:57:33;;;;;;;2.72;1.77;;;;;;;;;;5061719;28;20024;-76
2021/08/10 11:00:05;;;;;;;2.28;1.60;;;;;;;;;;5074811;28;20023;-75
2021/08/10 11:02:37;;;;;;;1.38;1.27;;;;;;;;;;5061982;28;20029;-76
2021/08/10 11:07:37;;;;;;;1.52;1.30;;;;;;;;;;5054006;28;20033;-79
2021/08/10 11:10:05;;;;;;;1.70;1.20;;;;;;;;;;5054154;28;20104;-77
2021/08/10 11:12:42;;;;;;;2.83;1.02;;;;;;;;;;5038628;28;20025;-76
2021/08/10 11:15:13;;;;;;;4.28;1.42;;;;;;;;;;5054365;28;20104;-76
2021/08/10 11:17:39;;;;;;;1.40;1.20;;;;;;;;;;5053225;28;20455;-75
2021/08/10 11:20:30;;;;;;;2.33;1.00;;;;;;;;;;5053927;28;20029;-75
2021/08/10 11:23:14;;;;;;;1.00;0.90;;;;;;;;;;5036986;28;20509;-75
2021/08/10 11:25:42;;;;;;;2.55;0.82;;;;;;;;;;5026996;28;20029;-75
2021/08/10 11:28:23;;;;;;;0.88;0.88;;;;;;;;;;5024882;28;20041;-75
2021/08/10 11:30:49;;;;;;;1.10;0.90;;;;;;;;;;5033666;28;20411;-76
2021/08/10 11:36:09;;;;;;;2.20;1.20;;;;;;;;;;5044670;28;20257;-75
2021/08/10 11:38:35;;;;;;;1.17;1.08;;;;;;;;;;5045156;28;20017;-80
2021/08/10 11:41:05;;;;;;;1.35;1.10;;;;;;;;;;5044773;28;20367;-78
2021/08/10 11:43:37;;;;;;;2.00;1.20;;;;;;;;;;5043933;28;20029;-78
2021/08/10 11:46:03;;;;;;;1.95;1.20;;;;;;;;;;5035044;28;20035;-77
2021/08/10 11:48:44;;;;;;;0.98;0.95;;;;;;;;;;5052930;28;20490;-77
2021/08/10 11:51:17;;;;;;;0.98;0.77;;;;;;;;;;5053325;28;20139;-77
2021/08/10 11:53:42;;;;;;;1.23;1.00;;;;;;;;;;5053658;28;20061;-77
2021/08/10 11:56:26;;;;;;;2.00;1.10;;;;;;;;;;5058263;28;20072;-77
2021/08/10 11:58:55;;;;;;;1.33;1.20;;;;;;;;;;5050665;28;20029;-76
2021/08/10 12:01:20;;;;;;;1.38;1.20;;;;;;;;;;5031754;28;20032;-76
2021/08/10 12:03:48;;;;;;;1.15;1.08;;;;;;;;;;5043176;28;20013;-75
2021/08/10 12:06:13;;;;;;;1.80;1.20;;;;;;;;;;5047516;28;20394;-81
2021/08/10 12:08:42;;;;;;;1.17;1.07;;;;;;;;;;5043790;28;20030;-82
2021/08/10 12:11:08;;;;;;;1.08;0.98;;;;;;;;;;5021973;28;20373;-83
2021/08/10 12:13:33;;;;;;;2.80;1.10;;;;;;;;;;5037433;28;20017;-84
2021/08/10 12:15:59;;;;;;;1.13;1.02;;;;;;;;;;5039656;28;20112;-82
2021/08/10 12:18:28;;;;;;;1.35;0.95;;;;;;;;;;5047461;28;20017;-84
2021/08/10 12:21:02;;;;;;;0.80;0.60;;;;;;;;;;5053196;28;20036;-91
2021/08/10 12:23:41;;;;;;;1.20;1.00;;;;;;;;;;5052531;28;20025;-82
2021/08/10 12:26:10;;;;;;;2.45;1.10;;;;;;;;;;5053284;28;20028;-84
2021/08/10 12:28:49;;;;;;;1.20;0.90;;;;;;;;;;5050752;28;20484;-84
2021/08/10 12:31:14;;;;;;;0.80;0.80;;;;;;;;;;5051759;28;20112;-84
2021/08/10 12:33:46;;;;;;;1.27;1.00;;;;;;;;;;5035422;28;20100;-85
2021/08/10 12:36:11;;;;;;;1.58;1.00;;;;;;;;;;5053276;28;20025;-84
2021/08/10 12:38:37;;;;;;;2.10;1.20;;;;;;;;;;5053371;28;20039;-84
2021/08/10 12:41:02;;;;;;;1.30;1.20;;;;;;;;;;5040019;28;20460;-84
2021/08/10 12:43:30;;;;;;;1.23;1.13;;;;;;;;;;5061756;28;20079;-84
2021/08/10 12:45:58;;;;;;;1.20;1.10;;;;;;;;;;5056360;28;20116;-84
2021/08/10 12:48:27;;;;;;;1.98;1.25;;;;;;;;;;5064841;28;20060;-83
2021/08/10 12:50:57;;;;;;;1.63;1.40;;;;;;;;;;5047002;28;20026;-86
2021/08/10 12:53:26;;;;;;;2.15;1.30;;;;;;;;;;5037342;28;20089;-86
2021/08/10 12:55:51;;;;;;;1.75;1.50;;;;;;;;;;5041037;28;20105;-86
2021/08/10 12:58:17;;;;;;;2.13;1.40;;;;;;;;;;5039821;28;20348;-81
2021/08/10 13:00:55;;;;;;;2.53;1.50;;;;;;;;;;5038762;28;20063;-86
2021/08/10 13:03:21;;;;;;;1.52;1.40;;;;;;;;;;5045320;28;20278;-85
2021/08/10 13:05:46;;;;;;;1.40;1.30;;;;;;;;;;5040025;28;20021;-85
2021/08/10 13:08:11;;;;;;;2.33;1.60;;;;;;;;;;5040344;28;20396;-85
2021/08/10 13:10:41;;;;;;;1.37;1.10;;;;;;;;;;5044378;28;20298;-82
2021/08/10 13:13:07;;;;;;;1.73;1.40;;;;;;;;;;5044185;28;20262;-84
2021/08/10 13:15:42;;;;;;;1.38;1.27;;;;;;;;;;5023036;28;20066;-81
2021/08/10 13:18:23;;;;;;;1.98;1.48;;;;;;;;;;5044843;28;20485;-86
2021/08/10 13:20:51;;;;;;;2.05;1.50;;;;;;;;;;5039877;28;20021;-81
2021/08/10 13:23:17;;;;;;;1.52;1.20;;;;;;;;;;5045270;28;20367;-86
2021/08/10 13:26:15;;;;;;;1.20;1.10;;;;;;;;;;5041074;28;20018;-87
2021/08/10 13:28:43;;;;;;;0.93;0.93;;;;;;;;;;5017961;28;20124;-90
2021/08/10 13:31:12;;;;;;;2.03;1.20;;;;;;;;;;5056316;28;20021;-88
2021/08/10 13:33:50;;;;;;;1.40;1.30;;;;;;;;;;5045192;28;20024;-88
2021/08/10 13:36:15;;;;;;;2.08;1.30;;;;;;;;;;5046277;28;20021;-91
2021/08/10 13:38:41;;;;;;;1.40;1.30;;;;;;;;;;5046823;28;20009;-88
2021/08/10 13:41:06;;;;;;;3.03;1.43;;;;;;;;;;5042931;28;20367;-89
2021/08/10 13:43:31;;;;;;;1.30;1.20;;;;;;;;;;5026176;28;20017;-89
2021/08/10 13:45:56;;;;;;;2.00;1.50;;;;;;;;;;5030699;28;20040;-87
2021/08/10 13:48:24;;;;;;;1.93;1.40;;;;;;;;;;5038358;28;20443;-84
2021/08/10 13:50:51;;;;;;;1.70;1.60;;;;;;;;;;5035896;28;20045;-84
2021/08/10 13:53:18;;;;;;;2.70;1.58;;;;;;;;;;5043023;28;20021;-85
2021/08/10 13:55:43;;;;;;;1.88;1.67;;;;;;;;;;5027602;28;20041;-83
2021/08/10 13:58:09;;;;;;;1.77;1.63;;;;;;;;;;5038337;28;20041;-87
2021/08/10 14:00:34;;;;;;;2.30;2.00;;;;;;;;;;5035931;28;20033;-88
2021/08/10 14:02:59;;;;;;;3.38;1.90;;;;;;;;;;5035329;28;20284;-87
2021/08/10 14:05:25;;;;;;;2.27;1.70;;;;;;;;;;5035861;28;20451;-87
2021/08/10 14:07:52;;;;;;;2.00;1.58;;;;;;;;;;5035964;28;20124;-86
2021/08/10 14:10:17;;;;;;;2.28;1.67;;;;;;;;;;5052616;28;20052;-87
2021/08/10 14:12:43;;;;;;;2.25;1.77;;;;;;;;;;5054317;28;20536;-85
2021/08/10 14:15:08;;;;;;;1.63;1.53;;;;;;;;;;5041990;28;20029;-82
2021/08/10 14:17:34;;;;;;;2.03;1.75;;;;;;;;;;5044467;28;20343;-83
2021/08/10 14:19:59;;;;;;;1.85;1.70;;;;;;;;;;5054157;28;20043;-85
2021/08/10 14:22:25;;;;;;;2.10;1.90;;;;;;;;;;5051054;28;20029;-85
2021/08/10 14:24:50;;;;;;;2.03;1.83;;;;;;;;;;5035518;28;20025;-85
2021/08/10 14:27:16;;;;;;;2.05;1.80;;;;;;;;;;5035029;28;20295;-85
2021/08/10 14:29:41;;;;;;;2.60;1.90;;;;;;;;;;5035369;28;20091;-85
2021/08/10 14:32:06;;;;;;;2.25;1.60;;;;;;;;;;5045927;28;20170;-85
2021/08/10 14:34:31;;;;;;;2.38;1.80;;;;;;;;;;5055200;28;20023;-85
2021/08/10 14:36:59;;;;;;;1.90;1.63;;;;;;;;;;5044138;28;20025;-85
2021/08/10 14:39:24;;;;;;;1.70;1.60;;;;;;;;;;5040002;28;20260;-85
2021/08/10 14:41:49;;;;;;;3.37;1.80;;;;;;;;;;5037202;28;20446;-86
2021/08/10 14:44:14;;;;;;;3.15;2.00;;;;;;;;;;5053916;28;20565;-86
2021/08/10 14:46:43;;;;;;;2.47;1.87;;;;;;;;;;5041257;28;20075;-86
2021/08/10 14:49:11;;;;;;;2.60;1.73;;;;;;;;;;5034124;28;20028;-86
2021/08/10 14:51:36;;;;;;;1.85;1.75;;;;;;;;;;5052927;28;20035;-81